Time;durP1;ratioP1;P1;durP2;ratioP2;P2;SDS_P1;SDS_P2;PMS_P1;PMS_P2;Temp;Humidity;BMP_temperature;BMP_pressure;BME280_temperature;BME280_humidity;BME280_pressure;Samples;Min_cycle;Max_cycle;Signal;HPM_P1;HPM_P2
2022/09/07 00:00:11;;;;;;;;;;;27.20;44.50;25.70;100795.00;;;;5103473;27;19923;-68
2022/09/07 00:02:57;;;;;;;;;;;27.20;44.50;25.70;100783.00;;;;5094916;28;19919;-68
2022/09/07 00:05:44;;;;;;;;;;;27.20;44.50;25.70;100769.00;;;;5100915;28;19912;-68
2022/09/07 00:08:30;;;;;;;;;;;27.20;44.50;25.70;100762.00;;;;5098148;28;19911;-68
2022/09/07 00:11:17;;;;;;;;;;;27.20;44.50;25.70;100772.00;;;;5095934;28;19977;-68
2022/09/07 00:14:04;;;;;;;;;;;27.20;44.50;25.70;100761.00;;;;5092372;28;20002;-68
2022/09/07 00:16:50;;;;;;;;;;;27.20;44.50;25.70;100764.00;;;;5085187;28;19923;-68
2022/09/07 00:19:36;;;;;;;;;;;27.20;44.50;25.70;100765.00;;;;5100034;28;20501;-68
2022/09/07 00:22:22;;;;;;;;;;;27.20;44.50;25.70;100767.00;;;;5096680;28;19916;-68
2022/09/07 00:25:08;;;;;;;;;;;27.20;44.50;25.70;100775.00;;;;5099767;28;20065;-68
2022/09/07 00:27:54;;;;;;;;;;;27.20;44.50;25.70;100783.00;;;;5095722;28;19959;-68
2022/09/07 00:30:41;;;;;;;;;;;27.20;44.50;25.70;100782.00;;;;5093503;28;19920;-68
2022/09/07 00:33:26;;;;;;;;;;;27.20;44.50;25.70;100776.00;;;;5082735;28;19995;-68
2022/09/07 00:36:13;;;;;;;;;;;27.20;44.60;25.70;100779.00;;;;5096969;28;19916;-68
2022/09/07 00:38:59;;;;;;;;;;;27.20;44.60;25.70;100775.00;;;;5099217;28;19969;-68
2022/09/07 00:41:44;;;;;;;;;;;27.20;44.60;25.70;100774.00;;;;5089181;27;19912;-68
2022/09/07 00:44:43;;;;;;;;;;;27.20;44.60;25.70;100781.00;;;;5100541;27;19955;-68
2022/09/07 00:47:34;;;;;;;;;;;27.20;44.60;25.70;100787.00;;;;5101994;27;19915;-68
2022/09/07 00:50:43;;;;;;;;;;;27.20;44.60;25.70;100790.00;;;;5106552;27;20435;-68
2022/09/07 00:53:38;;;;;;;;;;;27.20;44.60;25.70;100827.00;;;;5088472;27;19923;-68
2022/09/07 00:56:27;;;;;;;;;;;27.20;44.70;25.70;100863.00;;;;5104768;27;19998;-68
2022/09/07 00:59:14;;;;;;;;;;;27.20;44.80;25.70;100925.00;;;;5103944;27;19912;-67
2022/09/07 01:02:00;;;;;;;;;;;27.20;44.90;25.70;100953.00;;;;5098939;27;20300;-68
2022/09/07 01:04:48;;;;;;;;;;;27.20;45.00;25.70;100987.00;;;;5094373;28;19998;-68
2022/09/07 01:07:34;;;;;;;;;;;27.20;45.10;25.70;100985.00;;;;5097387;27;19930;-68
2022/09/07 01:10:22;;;;;;;;;;;27.20;45.20;25.60;100976.00;;;;5089731;28;19920;-68
2022/09/07 01:13:08;;;;;;;;;;;27.10;45.20;25.60;100976.00;;;;5087797;28;19916;-68
2022/09/07 01:16:13;;;;;;;;;;;27.10;45.30;25.60;100968.00;;;;5102155;27;19957;-67
2022/09/07 01:19:27;;;;;;;;;;;27.10;45.40;25.60;100950.00;;;;5097853;27;19951;-68
2022/09/07 01:22:34;;;;;;;;;;;27.10;45.50;25.60;100941.00;;;;5101557;27;20357;-67
2022/09/07 01:25:26;;;;;;;;;;;27.10;45.60;25.60;100933.00;;;;5082831;28;19916;-67
2022/09/07 01:28:12;;;;;;;;;;;27.00;45.50;25.60;100938.00;;;;5096070;28;19919;-67
2022/09/07 01:31:17;;;;;;;;;;;27.00;45.60;25.60;100943.00;;;;5095158;28;20009;-67
2022/09/07 01:34:22;;;;;;;;;;;27.00;45.70;25.60;100945.00;;;;5084980;28;20006;-68
2022/09/07 01:37:23;;;;;;;;;;;27.00;45.70;25.60;100961.00;;;;5104944;27;19911;-67
2022/09/07 01:40:20;;;;;;;;;;;27.00;45.70;25.60;100964.00;;;;5105721;27;19998;-68
2022/09/07 01:43:09;;;;;;;;;;;27.00;45.70;25.60;100963.00;;;;5091771;28;20395;-67
2022/09/07 01:45:55;;;;;;;;;;;27.00;45.80;25.60;100959.00;;;;5081610;28;19915;-67
2022/09/07 01:48:42;;;;;;;;;;;27.00;45.80;25.60;100973.00;;;;5091288;27;19912;-67
2022/09/07 01:51:30;;;;;;;;;;;27.00;45.80;25.60;100958.00;;;;5086547;28;20017;-68
2022/09/07 01:54:46;;;;;;;;;;;27.00;45.80;25.60;100945.00;;;;5103654;27;19912;-68
2022/09/07 01:57:42;;;;;;;;;;;27.00;45.80;25.60;100941.00;;;;5092789;28;19931;-68
2022/09/07 02:00:28;;;;;;;;;;;27.00;45.90;25.60;100938.00;;;;5111010;27;20258;-67
2022/09/07 02:03:17;;;;;;;;;;;27.00;45.80;25.60;100944.00;;;;5100029;28;19912;-68
2022/09/07 02:06:34;;;;;;;;;;;27.00;45.90;25.60;100945.00;;;;5078345;28;19963;-68
2022/09/07 02:09:51;;;;;;;;;;;27.00;45.90;25.60;100946.00;;;;5087410;27;19957;-67
2022/09/07 02:12:54;;;;;;;;;;;27.00;45.90;25.60;100946.00;;;;5111781;27;19920;-67
2022/09/07 02:15:55;;;;;;;;;;;27.00;45.90;25.60;100938.00;;;;5099925;27;20003;-68
2022/09/07 02:18:44;;;;;;;;;;;27.00;45.90;25.60;100945.00;;;;5099543;27;19915;-67
2022/09/07 02:21:35;;;;;;;;;;;27.00;46.00;25.60;100925.00;;;;5088839;27;19915;-68
2022/09/07 02:24:27;;;;;;;;;;;27.00;46.00;25.60;100914.00;;;;5087474;27;20052;-68
2022/09/07 02:27:15;;;;;;;;;;;27.00;46.00;25.60;100921.00;;;;5095487;27;19958;-68
2022/09/07 02:30:01;;;;;;;;;;;27.00;45.90;25.60;100917.00;;;;5101039;27;20391;-68
2022/09/07 02:32:47;;;;;;;;;;;27.00;46.00;25.60;100923.00;;;;5104594;27;19923;-68
2022/09/07 02:35:33;;;;;;;;;;;27.00;46.00;25.60;100923.00;;;;5100040;27;19915;-68
2022/09/07 02:38:19;;;;;;;;;;;27.00;46.10;25.60;100918.00;;;;5105059;27;19920;-68
2022/09/07 02:41:43;;;;;;;;;;;27.00;46.10;25.60;100921.00;;;;5094893;27;19961;-68
2022/09/07 02:44:33;;;;;;;;;;;27.00;46.10;25.60;100915.00;;;;5088480;27;19920;-68
2022/09/07 02:47:48;;;;;;;;;;;27.00;46.20;25.60;100924.00;;;;5102368;28;19988;-68
2022/09/07 02:50:46;;;;;;;;;;;27.00;46.20;25.60;100909.00;;;;5093304;27;20558;-68
2022/09/07 02:54:03;;;;;;;;;;;26.90;46.10;25.60;100898.00;;;;5095811;27;19919;-68
2022/09/07 02:57:08;;;;;;;;;;;27.00;46.20;25.60;100911.00;;;;5098663;27;19916;-68
2022/09/07 03:00:06;;;;;;;;;;;26.90;46.20;25.60;100883.00;;;;5100536;27;19915;-68
2022/09/07 03:03:15;;;;;;;;;;;26.90;46.20;25.60;100871.00;;;;5086411;28;19927;-68
2022/09/07 03:06:03;;;;;;;;;;;26.90;46.90;25.60;100870.00;;;;5088817;27;19916;-67
2022/09/07 03:08:51;;;;;;;;;;;26.90;46.20;25.60;100861.00;;;;5090627;27;19927;-68
2022/09/07 03:11:37;;;;;;;;;;;26.90;46.20;25.60;100846.00;;;;5082113;27;20010;-68
2022/09/07 03:14:24;;;;;;;;;;;26.90;46.20;25.60;100844.00;;;;5102223;27;19927;-67
2022/09/07 03:17:10;;;;;;;;;;;26.90;46.20;25.60;100828.00;;;;5092923;27;19927;-68
2022/09/07 03:19:56;;;;;;;;;;;26.90;46.20;25.60;100823.00;;;;5108723;27;20268;-67
2022/09/07 03:22:43;;;;;;;;;;;26.90;46.20;25.60;100817.00;;;;5101858;27;19911;-68
2022/09/07 03:25:29;;;;;;;;;;;26.90;46.10;25.60;100813.00;;;;5097865;27;19920;-67
2022/09/07 03:28:15;;;;;;;;;;;26.90;46.10;25.60;100804.00;;;;5105728;27;20273;-67
2022/09/07 03:31:01;;;;;;;;;;;26.90;46.10;25.60;100806.00;;;;5095014;27;20014;-67
2022/09/07 03:33:47;;;;;;;;;;;26.90;46.00;25.60;100803.00;;;;5101579;27;20006;-67
2022/09/07 03:36:33;;;;;;;;;;;26.90;46.00;25.60;100810.00;;;;5100678;28;19912;-67
2022/09/07 03:39:22;;;;;;;;;;;26.90;46.00;25.60;100813.00;;;;5098442;28;19928;-67
2022/09/07 03:42:08;;;;;;;;;;;26.90;46.10;25.60;100807.00;;;;5099512;28;19916;-67
2022/09/07 03:44:54;;;;;;;;;;;26.90;46.20;25.60;100806.00;;;;5099058;28;19915;-67
2022/09/07 03:47:40;;;;;;;;;;;26.90;46.20;25.60;100803.00;;;;5094498;28;19946;-68
2022/09/07 03:50:27;;;;;;;;;;;26.90;46.20;25.60;100794.00;;;;5091378;28;19958;-68
2022/09/07 03:53:13;;;;;;;;;;;26.90;46.30;25.60;100764.00;;;;5102528;28;19915;-68
2022/09/07 03:56:01;;;;;;;;;;;26.90;46.30;25.60;100760.00;;;;5092977;28;19923;-68
2022/09/07 03:58:47;;;;;;;;;;;26.90;46.20;25.60;100781.00;;;;5097216;28;19919;-68
2022/09/07 04:01:33;;;;;;;;;;;26.90;46.20;25.60;100789.00;;;;5080586;28;20354;-68
2022/09/07 04:04:19;;;;;;;;;;;26.80;46.10;25.60;100797.00;;;;5100172;28;19927;-67
2022/09/07 04:07:05;;;;;;;;;;;26.80;46.20;25.60;100795.00;;;;5091213;28;19912;-68
2022/09/07 04:09:51;;;;;;;;;;;26.80;46.30;25.60;100793.00;;;;5087890;28;19912;-68
2022/09/07 04:12:37;;;;;;;;;;;26.80;46.40;25.60;100796.00;;;;5091673;28;19924;-68
2022/09/07 04:15:23;;;;;;;;;;;26.80;46.40;25.60;100788.00;;;;5098953;27;20694;-67
2022/09/07 04:18:09;;;;;;;;;;;26.80;46.40;25.60;100783.00;;;;5102796;27;19920;-67
2022/09/07 04:20:57;;;;;;;;;;;26.80;46.40;25.60;100795.00;;;;5095610;28;19966;-67
2022/09/07 04:23:43;;;;;;;;;;;26.80;46.50;25.60;100795.00;;;;5096877;27;19916;-68
2022/09/07 04:26:31;;;;;;;;;;;26.80;46.60;25.60;100787.00;;;;5104572;27;20376;-68
2022/09/07 04:29:17;;;;;;;;;;;26.80;46.50;25.50;100801.00;;;;5097601;27;20331;-68
2022/09/07 04:32:03;;;;;;;;;;;26.80;46.60;25.50;100793.00;;;;5096792;27;20413;-67
2022/09/07 04:34:50;;;;;;;;;;;26.80;46.60;25.50;100789.00;;;;5105907;27;20467;-68
2022/09/07 04:37:37;;;;;;;;;;;26.80;46.60;25.50;100783.00;;;;5100193;27;19959;-68
2022/09/07 04:40:23;;;;;;;;;;;26.80;46.70;25.50;100785.00;;;;5099081;28;19911;-67
2022/09/07 04:43:11;;;;;;;;;;;26.80;46.70;25.50;100785.00;;;;5103193;27;19923;-67
2022/09/07 04:46:01;;;;;;;;;;;26.80;46.70;25.50;100791.00;;;;5100201;27;19937;-68
2022/09/07 04:48:48;;;;;;;;;;;26.80;46.70;25.50;100793.00;;;;5100804;28;19911;-67
2022/09/07 04:51:34;;;;;;;;;;;26.80;46.80;25.50;100787.00;;;;5100720;28;19920;-68
2022/09/07 04:54:20;;;;;;;;;;;26.70;46.70;25.50;100788.00;;;;5085743;28;19919;-67
2022/09/07 04:57:07;;;;;;;;;;;26.70;46.70;25.50;100781.00;;;;5099365;27;19915;-68
2022/09/07 04:59:53;;;;;;;;;;;26.70;46.70;25.50;100787.00;;;;5101147;27;19912;-67
2022/09/07 05:02:39;;;;;;;;;;;26.70;46.70;25.50;100787.00;;;;5097790;28;19923;-68
2022/09/07 05:05:25;;;;;;;;;;;26.70;46.70;25.50;100792.00;;;;5097752;27;19912;-68
2022/09/07 05:08:12;;;;;;;;;;;26.70;46.80;25.50;100789.00;;;;5107086;27;19915;-67
2022/09/07 05:10:58;;;;;;;;;;;26.70;46.80;25.50;100787.00;;;;5082852;28;19966;-67
2022/09/07 05:13:44;;;;;;;;;;;26.70;46.80;25.50;100792.00;;;;5082470;28;19915;-68
2022/09/07 05:16:30;;;;;;;;;;;26.70;46.80;25.50;100797.00;;;;5099165;27;19961;-67
2022/09/07 05:19:16;;;;;;;;;;;26.70;46.80;25.50;100791.00;;;;5093985;28;19951;-68
2022/09/07 05:22:02;;;;;;;;;;;26.70;46.90;25.50;100790.00;;;;5096039;27;19915;-68
2022/09/07 05:24:48;;;;;;;;;;;26.70;46.90;25.50;100791.00;;;;5087111;28;19984;-68
2022/09/07 05:27:34;;;;;;;;;;;26.70;46.90;25.40;100797.00;;;;5110056;27;19964;-67
2022/09/07 05:30:20;;;;;;;;;;;26.70;46.90;25.50;100809.00;;;;5100049;27;19920;-67
2022/09/07 05:33:09;;;;;;;;;;;26.60;46.90;25.40;100804.00;;;;5101996;27;19916;-68
2022/09/07 05:35:59;;;;;;;;;;;26.60;46.90;25.40;100815.00;;;;5094337;27;19997;-67
2022/09/07 05:38:45;;;;;;;;;;;26.60;46.90;25.40;100820.00;;;;5112569;27;20389;-68
2022/09/07 05:41:31;;;;;;;;;;;26.60;46.90;25.40;100824.00;;;;5100126;27;19912;-67
2022/09/07 05:44:17;;;;;;;;;;;26.60;46.90;25.40;100827.00;;;;5082460;28;19947;-67
2022/09/07 05:47:03;;;;;;;;;;;26.60;47.00;25.40;100829.00;;;;5099042;27;19959;-67
2022/09/07 05:49:49;;;;;;;;;;;26.60;47.00;25.40;100824.00;;;;5103202;27;19970;-67
2022/09/07 05:52:35;;;;;;;;;;;26.60;47.00;25.40;100824.00;;;;5084341;27;19955;-67
2022/09/07 05:55:21;;;;;;;;;;;26.60;47.00;25.40;100812.00;;;;5097604;27;19912;-67
2022/09/07 05:58:07;;;;;;;;;;;26.60;47.00;25.40;100820.00;;;;5076216;27;20473;-68
2022/09/07 06:00:57;;;;;;;;;;;26.60;47.00;25.40;100813.00;;;;5084578;28;20242;-68
2022/09/07 06:03:43;;;;;;;;;;;26.60;47.00;25.40;100813.00;;;;5076618;27;20359;-68
2022/09/07 06:06:30;;;;;;;;;;;26.60;47.30;25.40;100820.00;;;;5098898;27;19915;-67
2022/09/07 06:09:15;;;;;;;;;;;26.60;47.10;25.40;100825.00;;;;5102983;27;19919;-67
2022/09/07 06:12:04;;;;;;;;;;;26.60;47.00;25.40;100826.00;;;;5093900;28;19920;-68
2022/09/07 06:14:50;;;;;;;;;;;26.60;47.10;25.40;100829.00;;;;5102742;27;19977;-67
2022/09/07 06:17:36;;;;;;;;;;;26.60;47.10;25.40;100823.00;;;;5096980;27;20272;-67
2022/09/07 06:20:22;;;;;;;;;;;26.60;47.10;25.40;100828.00;;;;5101347;27;20268;-68
2022/09/07 06:23:08;;;;;;;;;;;26.60;47.10;25.40;100832.00;;;;5104843;27;19923;-68
2022/09/07 06:25:54;;;;;;;;;;;26.60;47.10;25.40;100824.00;;;;5097802;27;19911;-68
2022/09/07 06:28:41;;;;;;;;;;;26.60;47.10;25.40;100825.00;;;;5098350;27;19923;-68
2022/09/07 06:31:27;;;;;;;;;;;26.60;47.20;25.40;100826.00;;;;5099553;27;19916;-67
2022/09/07 06:34:13;;;;;;;;;;;26.60;47.20;25.40;100837.00;;;;5100496;27;19923;-68
2022/09/07 06:36:59;;;;;;;;;;;26.60;47.20;25.40;100844.00;;;;5099749;27;19951;-68
2022/09/07 06:39:46;;;;;;;;;;;26.60;47.20;25.40;100844.00;;;;5092746;28;20280;-67
2022/09/07 06:42:32;;;;;;;;;;;26.60;47.30;25.40;100846.00;;;;5099264;27;19919;-67
2022/09/07 06:45:18;;;;;;;;;;;26.60;47.30;25.40;100850.00;;;;5097786;27;20323;-68
2022/09/07 06:48:04;;;;;;;;;;;26.60;47.30;25.40;100850.00;;;;5099040;27;20296;-67
2022/09/07 06:50:58;;;;;;;;;;;26.60;47.30;25.40;100853.00;;;;5091719;28;19989;-68
2022/09/07 06:53:44;;;;;;;;;;;26.60;47.30;25.40;100854.00;;;;5089892;27;19915;-68
2022/09/07 06:56:30;;;;;;;;;;;26.60;47.30;25.40;100852.00;;;;5088078;28;19916;-68
2022/09/07 06:59:16;;;;;;;;;;;26.70;47.40;25.40;100856.00;;;;5094913;27;20327;-67
2022/09/07 07:02:03;;;;;;;;;;;26.70;47.40;25.40;100852.00;;;;5097090;27;19920;-67
2022/09/07 07:04:49;;;;;;;;;;;26.70;47.40;25.40;100875.00;;;;5100721;27;19920;-67
2022/09/07 07:07:35;;;;;;;;;;;26.70;47.40;25.40;100871.00;;;;5106571;27;19912;-67
2022/09/07 07:10:21;;;;;;;;;;;26.60;47.30;25.40;100864.00;;;;5099165;27;19915;-67
2022/09/07 07:13:07;;;;;;;;;;;26.70;47.40;25.40;100866.00;;;;5097985;27;19920;-67
2022/09/07 07:16:04;;;;;;;;;;;26.70;47.40;25.40;100872.00;;;;5099984;27;20100;-67
2022/09/07 07:18:54;;;;;;;;;;;26.70;47.50;25.40;100864.00;;;;5099486;27;19919;-68
2022/09/07 07:21:40;;;;;;;;;;;26.70;47.50;25.40;100868.00;;;;5094713;27;19918;-68
2022/09/07 07:24:26;;;;;;;;;;;26.70;47.50;25.40;100869.00;;;;5101314;27;19923;-67
2022/09/07 07:27:12;;;;;;;;;;;26.70;47.50;25.40;100866.00;;;;5095559;27;20277;-67
2022/09/07 07:29:58;;;;;;;;;;;26.70;47.50;25.40;100876.00;;;;5089467;28;20361;-68
2022/09/07 07:32:44;;;;;;;;;;;26.70;47.50;25.40;100873.00;;;;5101736;27;19915;-67
2022/09/07 07:35:30;;;;;;;;;;;26.70;47.50;25.40;100885.00;;;;5108942;27;20497;-68
2022/09/07 07:38:16;;;;;;;;;;;26.70;47.50;25.40;100885.00;;;;5082812;28;19912;-67
2022/09/07 07:41:02;;;;;;;;;;;26.70;47.50;25.40;100893.00;;;;5095158;27;19920;-68
2022/09/07 07:43:55;;;;;;;;;;;26.70;47.50;25.40;100889.00;;;;5097770;28;19923;-67
2022/09/07 07:46:41;;;;;;;;;;;26.70;47.50;25.40;100881.00;;;;5093547;28;20268;-67
2022/09/07 07:49:27;;;;;;;;;;;26.70;47.50;25.40;100884.00;;;;5104219;28;19911;-67
2022/09/07 07:52:15;;;;;;;;;;;26.70;47.60;25.40;100891.00;;;;5085357;28;19922;-67
2022/09/07 07:55:01;;;;;;;;;;;26.70;47.50;25.40;100881.00;;;;5096070;28;20006;-67
2022/09/07 07:57:47;;;;;;;;;;;26.70;47.50;25.40;100883.00;;;;5081049;28;20443;-68
2022/09/07 08:00:34;;;;;;;;;;;26.70;47.50;25.40;100885.00;;;;5094858;28;19955;-67
2022/09/07 08:03:20;;;;;;;;;;;26.70;47.60;25.40;100889.00;;;;5094718;28;19955;-68
2022/09/07 08:06:08;;;;;;;;;;;26.70;47.60;25.40;100889.00;;;;5093962;28;19981;-68
2022/09/07 08:08:54;;;;;;;;;;;26.70;47.60;25.40;100891.00;;;;5091896;28;19912;-68
2022/09/07 08:11:41;;;;;;;;;;;26.70;47.60;25.40;100902.00;;;;5088660;28;19976;-68
2022/09/07 08:14:27;;;;;;;;;;;26.70;47.60;25.40;100900.00;;;;5099179;28;20292;-68
2022/09/07 08:17:14;;;;;;;;;;;26.70;47.60;25.40;100904.00;;;;5085699;28;20155;-69
2022/09/07 08:20:00;;;;;;;;;;;26.70;47.60;25.40;100903.00;;;;5093659;28;20332;-68
2022/09/07 08:22:48;;;;;;;;;;;26.70;47.60;25.40;100909.00;;;;5091244;28;20343;-68
2022/09/07 08:25:34;;;;;;;;;;;26.70;47.60;25.40;100911.00;;;;5103832;28;20360;-68
2022/09/07 08:28:21;;;;;;;;;;;26.70;47.70;25.40;100915.00;;;;5096138;28;20253;-68
2022/09/07 08:31:08;;;;;;;;;;;26.70;47.70;25.40;100923.00;;;;5093059;28;19920;-67
2022/09/07 08:33:54;;;;;;;;;;;26.70;47.70;25.40;100924.00;;;;5101590;28;19919;-68
2022/09/07 08:36:40;;;;;;;;;;;26.70;47.70;25.40;100929.00;;;;5091707;28;19919;-67
2022/09/07 08:39:26;;;;;;;;;;;26.70;47.60;25.40;100923.00;;;;5097038;28;19911;-68
2022/09/07 08:42:21;;;;;;;;;;;26.70;47.60;25.40;100924.00;;;;5096846;28;20030;-68
2022/09/07 08:45:15;;;;;;;;;;;26.70;47.70;25.40;100925.00;;;;5109675;28;19912;-68
2022/09/07 08:48:03;;;;;;;;;;;26.70;47.70;25.40;100918.00;;;;5102232;28;19923;-68
2022/09/07 08:51:21;;;;;;;;;;;26.70;47.70;25.40;100921.00;;;;5073455;28;20333;-68
2022/09/07 08:54:12;;;;;;;;;;;26.70;47.70;25.40;100926.00;;;;5092055;28;19912;-68
2022/09/07 08:57:01;;;;;;;;;;;26.70;47.70;25.40;100918.00;;;;5095664;28;19911;-68
2022/09/07 09:00:01;;;;;;;;;;;26.70;47.70;25.40;100919.00;;;;5091221;28;19922;-68
2022/09/07 09:02:47;;;;;;;;;;;26.70;47.70;25.40;100916.00;;;;5095769;28;19989;-68
2022/09/07 09:06:02;;;;;;;;;;;26.70;47.70;25.40;100927.00;;;;5097155;28;20389;-68
2022/09/07 09:09:25;;;;;;;;;;;26.70;47.80;25.40;100930.00;;;;5095328;28;19954;-67
2022/09/07 09:12:40;;;;;;;;;;;26.70;47.80;25.40;100926.00;;;;5106971;28;19922;-68
2022/09/07 09:15:45;;;;;;;;;;;26.70;47.80;25.40;100934.00;;;;5095755;28;20006;-68
2022/09/07 09:18:46;;;;;;;;;;;26.70;47.90;25.40;100931.00;;;;5105800;28;19911;-68
2022/09/07 09:21:33;;;;;;;;;;;26.70;47.90;25.40;100921.00;;;;5101938;28;19912;-68
2022/09/07 09:24:19;;;;;;;;;;;26.70;47.90;25.40;100923.00;;;;5096992;28;20576;-67
2022/09/07 09:27:05;;;;;;;;;;;26.70;47.90;25.40;100921.00;;;;5081213;28;20010;-68
2022/09/07 09:29:51;;;;;;;;;;;26.70;47.90;25.40;100922.00;;;;5095581;28;19919;-68
2022/09/07 09:32:41;;;;;;;;;;;26.70;47.90;25.40;100926.00;;;;5099066;28;20392;-68
2022/09/07 09:35:32;;;;;;;;;;;26.80;48.00;25.40;100935.00;;;;5084240;28;19998;-68
2022/09/07 09:38:42;;;;;;;;;;;26.70;47.90;25.40;100946.00;;;;5083403;28;20002;-68
2022/09/07 09:41:35;;;;;;;;;;;26.70;47.90;25.40;100942.00;;;;5093920;28;19918;-68
2022/09/07 09:44:20;;;;;;;;;;;26.70;47.90;25.40;100943.00;;;;5110950;27;20008;-68
2022/09/07 09:47:16;;;;;;;;;;;26.70;48.00;25.40;100943.00;;;;5085797;28;19912;-68
2022/09/07 09:50:16;;;;;;;;;;;26.80;48.10;25.40;100947.00;;;;5086193;28;20364;-68
2022/09/07 09:53:03;;;;;;;;;;;26.70;48.00;25.40;100950.00;;;;5085834;28;20100;-67
2022/09/07 09:55:50;;;;;;;;;;;26.80;48.10;25.40;100955.00;;;;5072472;28;20396;-67
2022/09/07 09:58:37;;;;;;;;;;;26.70;48.00;25.40;100954.00;;;;5096564;27;19964;-67
2022/09/07 10:01:31;;;;;;;;;;;26.70;48.00;25.40;100950.00;;;;5101091;27;20307;-67
2022/09/07 10:04:29;;;;;;;;;;;26.70;48.10;25.40;100953.00;;;;5102850;28;19912;-68
2022/09/07 10:07:21;;;;;;;;;;;26.80;48.10;25.40;100939.00;;;;5094546;28;20012;-67
2022/09/07 10:10:14;;;;;;;;;;;26.70;48.10;25.40;100933.00;;;;5088009;28;19915;-68
2022/09/07 10:13:00;;;;;;;;;;;26.80;48.20;25.40;100930.00;;;;5084629;28;19924;-67
2022/09/07 10:15:49;;;;;;;;;;;26.80;48.20;25.40;100919.00;;;;5096847;27;19919;-67
2022/09/07 10:18:40;;;;;;;;;;;26.80;48.20;25.40;100920.00;;;;5114457;27;20439;-67
2022/09/07 10:21:29;;;;;;;;;;;26.70;48.10;25.40;100924.00;;;;5094402;28;19911;-67
2022/09/07 10:24:19;;;;;;;;;;;26.70;48.10;25.40;100928.00;;;;5102899;27;19916;-67
2022/09/07 10:27:31;;;;;;;;;;;26.80;48.20;25.40;100924.00;;;;5113573;27;20356;-67
2022/09/07 10:30:17;;;;;;;;;;;26.80;48.20;25.40;100925.00;;;;5086714;28;19978;-68
2022/09/07 10:33:07;;;;;;;;;;;26.70;48.20;25.40;100927.00;;;;5067706;28;20258;-67
2022/09/07 10:36:09;;;;;;;;;;;26.70;48.20;25.40;100929.00;;;;5113344;27;20216;-67
2022/09/07 10:38:59;;;;;;;;;;;26.80;48.30;25.40;100918.00;;;;5091926;28;19918;-67
2022/09/07 10:42:11;;;;;;;;;;;26.70;48.20;25.40;100915.00;;;;5081241;28;19919;-67
2022/09/07 10:45:18;;;;;;;;;;;26.70;48.20;25.40;100901.00;;;;5069367;28;19969;-68
2022/09/07 10:48:04;;;;;;;;;;;26.70;48.20;25.40;100892.00;;;;5106940;27;19998;-68
2022/09/07 10:50:51;;;;;;;;;;;26.70;48.30;25.40;100888.00;;;;5097306;28;19918;-68
2022/09/07 10:53:45;;;;;;;;;;;26.70;48.30;25.40;100892.00;;;;5080405;28;19915;-68
2022/09/07 10:56:34;;;;;;;;;;;26.70;48.30;25.40;100898.00;;;;5097992;28;20387;-68
2022/09/07 10:59:48;;;;;;;;;;;26.70;48.30;25.40;100891.00;;;;5082866;27;19996;-68
2022/09/07 11:02:38;;;;;;;;;;;26.70;48.30;25.40;100898.00;;;;5096856;27;19912;-68
2022/09/07 11:05:52;;;;;;;;;;;26.70;48.30;25.40;100892.00;;;;5093097;27;19911;-68
2022/09/07 11:09:06;;;;;;;;;;;26.70;48.30;25.40;100897.00;;;;5094802;28;20006;-68
2022/09/07 11:12:09;;;;;;;;;;;26.80;48.40;25.40;100882.00;;;;5078444;28;19923;-68
2022/09/07 11:15:00;;;;;;;;;;;26.70;48.40;25.40;100874.00;;;;5106087;27;19919;-68
2022/09/07 11:17:58;;;;;;;;;;;26.70;48.60;25.40;100881.00;;;;5105621;27;19911;-68
2022/09/07 11:20:49;;;;;;;;;;;26.70;48.40;25.40;100906.00;;;;5104821;27;20006;-68
2022/09/07 11:23:42;;;;;;;;;;;26.70;48.30;25.40;100907.00;;;;5088655;28;19920;-68
2022/09/07 11:26:36;;;;;;;;;;;26.70;48.20;25.40;100917.00;;;;5089727;27;20280;-68
2022/09/07 11:29:35;;;;;;;;;;;26.80;48.30;25.40;100910.00;;;;5080829;28;20776;-68
2022/09/07 11:32:28;;;;;;;;;;;26.80;48.30;25.40;100910.00;;;;5077811;27;19962;-68
2022/09/07 11:35:17;;;;;;;;;;;26.80;48.20;25.40;100912.00;;;;5102020;27;19965;-68
2022/09/07 11:38:13;;;;;;;;;;;26.80;48.30;25.40;100907.00;;;;5095025;28;19935;-68
2022/09/07 11:41:17;;;;;;;;;;;26.80;48.30;25.40;100906.00;;;;5085234;28;19976;-68
2022/09/07 11:44:10;;;;;;;;;;;26.70;48.20;25.40;100913.00;;;;5071499;28;19920;-68
2022/09/07 11:47:01;;;;;;;;;;;26.80;48.30;25.40;100918.00;;;;5088120;28;20377;-68
2022/09/07 11:49:51;;;;;;;;;;;26.80;48.40;25.40;100910.00;;;;5077847;28;19911;-68
2022/09/07 11:52:38;;;;;;;;;;;26.80;48.40;25.40;100906.00;;;;5086220;28;20369;-68
2022/09/07 11:55:27;;;;;;;;;;;26.80;48.40;25.40;100913.00;;;;5095985;28;19911;-68
2022/09/07 11:58:39;;;;;;;;;;;26.70;48.30;25.40;100918.00;;;;5091308;28;20221;-68
2022/09/07 12:01:35;;;;;;;;;;;26.80;48.40;25.40;100909.00;;;;5080428;28;20348;-68
2022/09/07 12:04:58;;;;;;;;;;;26.80;48.40;25.40;100912.00;;;;5089377;28;19937;-68
2022/09/07 12:07:53;;;;;;;;;;;26.80;48.40;25.40;100903.00;;;;5091858;28;20010;-68
2022/09/07 12:11:07;;;;;;;;;;;26.80;48.40;25.40;100909.00;;;;5081989;28;20366;-68
2022/09/07 12:14:22;;;;;;;;;;;26.80;48.40;25.40;100911.00;;;;5095529;28;20380;-68
2022/09/07 12:17:14;;;;;;;;;;;26.80;48.40;25.40;100905.00;;;;5083522;28;19916;-68
2022/09/07 12:20:16;;;;;;;;;;;26.80;48.50;25.40;100905.00;;;;5095692;28;19922;-68
2022/09/07 12:23:26;;;;;;;;;;;26.80;48.50;25.40;100902.00;;;;5075293;28;19916;-68
2022/09/07 12:26:31;;;;;;;;;;;26.80;48.50;25.40;100897.00;;;;5082583;28;20389;-68
2022/09/07 12:29:19;;;;;;;;;;;26.80;48.50;25.40;100895.00;;;;5100454;28;19916;-68
2022/09/07 12:32:06;;;;;;;;;;;26.90;48.60;25.40;100888.00;;;;5085926;28;19916;-68
2022/09/07 12:34:53;;;;;;;;;;;26.80;48.50;25.40;100888.00;;;;5067986;28;19916;-68
2022/09/07 12:37:40;;;;;;;;;;;26.80;48.50;25.40;100886.00;;;;5094040;27;19930;-68
2022/09/07 12:40:26;;;;;;;;;;;26.90;48.60;25.40;100892.00;;;;5104593;27;20367;-68
2022/09/07 12:43:12;;;;;;;;;;;26.80;48.50;25.40;100886.00;;;;5102865;27;19955;-68
2022/09/07 12:45:59;;;;;;;;;;;26.80;48.50;25.40;100881.00;;;;5100016;27;19923;-68
2022/09/07 12:48:56;;;;;;;;;;;26.80;48.50;25.40;100877.00;;;;5104066;27;20262;-68
2022/09/07 12:51:47;;;;;;;;;;;26.90;48.60;25.40;100877.00;;;;5075062;27;20006;-68
2022/09/07 12:54:54;;;;;;;;;;;26.90;48.60;25.40;100870.00;;;;5089411;27;20458;-68
2022/09/07 12:57:57;;;;;;;;;;;26.90;48.60;25.40;100869.00;;;;5109112;27;20410;-68
2022/09/07 13:00:47;;;;;;;;;;;26.90;48.60;25.40;100871.00;;;;5082046;27;19916;-68
2022/09/07 13:03:39;;;;;;;;;;;26.90;48.60;25.40;100879.00;;;;5087068;27;19965;-68
2022/09/07 13:06:28;;;;;;;;;;;26.90;48.60;25.40;100864.00;;;;5101413;27;20022;-68
2022/09/07 13:09:22;;;;;;;;;;;26.90;48.60;25.40;100861.00;;;;5102029;27;19938;-68
2022/09/07 13:12:20;;;;;;;;;;;26.90;48.70;25.40;100862.00;;;;5099057;27;20376;-68
2022/09/07 13:15:16;;;;;;;;;;;26.90;48.60;25.40;100865.00;;;;5084095;27;20331;-68
2022/09/07 13:18:02;;;;;;;;;;;26.90;48.70;25.40;100856.00;;;;5086144;27;19991;-68
2022/09/07 13:21:06;;;;;;;;;;;26.90;48.70;25.40;100860.00;;;;5084949;28;20323;-67
2022/09/07 13:24:20;;;;;;;;;;;26.90;48.60;25.40;100858.00;;;;5089868;27;19919;-68
2022/09/07 13:27:53;;;;;;;;;;;26.90;48.60;25.40;100853.00;;;;5110044;27;19996;-68
2022/09/07 13:31:14;;;;;;;;;;;26.90;48.60;25.40;100849.00;;;;5071823;27;19958;-68
2022/09/07 13:34:00;;;;;;;;;;;26.90;48.60;25.40;100844.00;;;;5086656;28;19916;-67
2022/09/07 13:36:46;;;;;;;;;;;26.90;48.60;25.40;100850.00;;;;5100265;27;20296;-68
2022/09/07 13:39:39;;;;;;;;;;;26.90;48.60;25.40;100847.00;;;;5097227;27;19911;-68
2022/09/07 13:42:32;;;;;;;;;;;26.90;48.60;25.40;100846.00;;;;5081380;27;20277;-68
2022/09/07 13:45:45;;;;;;;;;;;26.90;49.00;25.40;100837.00;;;;5087163;27;20010;-68
2022/09/07 13:48:34;;;;;;;;;;;26.90;48.60;25.40;100836.00;;;;5076989;28;19916;-68